sensor_id;sensor_type;location;lat;lon;timestamp;P1;durP1;ratioP1;P2;durP2;ratioP2
69207;SDS011;56321;47.662;8.878;2022-07-29T00:02:20;5.27;;;1.90;;
69207;SDS011;56321;47.662;8.878;2022-07-29T00:04:45;4.93;;;1.67;;
69207;SDS011;56321;47.662;8.878;2022-07-29T00:07:11;4.85;;;1.80;;
69207;SDS011;56321;47.662;8.878;2022-07-29T00:09:36;5.30;;;1.63;;
69207;SDS011;56321;47.662;8.878;2022-07-29T00:12:02;5.67;;;1.77;;
69207;SDS011;56321;47.662;8.878;2022-07-29T00:14:28;5.43;;;1.70;;
69207;SDS011;56321;47.662;8.878;2022-07-29T00:16:53;5.03;;;1.63;;
69207;SDS011;56321;47.662;8.878;2022-07-29T00:19:19;4.38;;;1.42;;
69207;SDS011;56321;47.662;8.878;2022-07-29T00:21:44;5.30;;;1.60;;
69207;SDS011;56321;47.662;8.878;2022-07-29T00:24:09;5.00;;;1.73;;
69207;SDS011;56321;47.662;8.878;2022-07-29T00:26:35;4.90;;;1.50;;
69207;SDS011;56321;47.662;8.878;2022-07-29T00:29:01;5.23;;;1.80;;
69207;SDS011;56321;47.662;8.878;2022-07-29T00:31:28;4.77;;;1.53;;
69207;SDS011;56321;47.662;8.878;2022-07-29T00:33:53;5.07;;;1.70;;
69207;SDS011;56321;47.662;8.878;2022-07-29T00:36:19;4.43;;;1.53;;
69207;SDS011;56321;47.662;8.878;2022-07-29T00:38:46;5.43;;;1.75;;
69207;SDS011;56321;47.662;8.878;2022-07-29T00:41:12;5.60;;;1.60;;
69207;SDS011;56321;47.662;8.878;2022-07-29T00:43:38;5.10;;;1.80;;
69207;SDS011;56321;47.662;8.878;2022-07-29T00:46:03;5.43;;;1.73;;
69207;SDS011;56321;47.662;8.878;2022-07-29T00:48:29;5.83;;;1.60;;
69207;SDS011;56321;47.662;8.878;2022-07-29T00:50:54;5.50;;;1.60;;
69207;SDS011;56321;47.662;8.878;2022-07-29T00:53:22;4.80;;;1.60;;
69207;SDS011;56321;47.662;8.878;2022-07-29T00:55:48;5.70;;;1.58;;
69207;SDS011;56321;47.662;8.878;2022-07-29T00:58:13;5.00;;;1.57;;
69207;SDS011;56321;47.662;8.878;2022-07-29T01:00:39;5.13;;;1.80;;
69207;SDS011;56321;47.662;8.878;2022-07-29T01:03:06;4.67;;;1.70;;
69207;SDS011;56321;47.662;8.878;2022-07-29T01:05:32;5.65;;;1.70;;
69207;SDS011;56321;47.662;8.878;2022-07-29T01:07:58;5.40;;;1.67;;
69207;SDS011;56321;47.662;8.878;2022-07-29T01:10:24;5.13;;;1.65;;
69207;SDS011;56321;47.662;8.878;2022-07-29T01:12:51;6.85;;;1.95;;
69207;SDS011;56321;47.662;8.878;2022-07-29T01:15:18;5.03;;;1.80;;
69207;SDS011;56321;47.662;8.878;2022-07-29T01:23:01;5.22;;;1.70;;
69207;SDS011;56321;47.662;8.878;2022-07-29T01:31:10;4.88;;;1.75;;
69207;SDS011;56321;47.662;8.878;2022-07-29T01:33:38;5.95;;;1.77;;
69207;SDS011;56321;47.662;8.878;2022-07-29T01:36:18;5.30;;;1.80;;
69207;SDS011;56321;47.662;8.878;2022-07-29T01:38:52;5.75;;;1.65;;
69207;SDS011;56321;47.662;8.878;2022-07-29T01:41:22;5.73;;;1.93;;
69207;SDS011;56321;47.662;8.878;2022-07-29T01:46:20;5.45;;;1.55;;
69207;SDS011;56321;47.662;8.878;2022-07-29T01:48:54;5.72;;;1.80;;
69207;SDS011;56321;47.662;8.878;2022-07-29T01:51:33;5.43;;;1.90;;
69207;SDS011;56321;47.662;8.878;2022-07-29T01:54:16;5.27;;;1.70;;
69207;SDS011;56321;47.662;8.878;2022-07-29T01:56:47;5.20;;;1.73;;
69207;SDS011;56321;47.662;8.878;2022-07-29T01:59:14;5.18;;;1.90;;
69207;SDS011;56321;47.662;8.878;2022-07-29T02:01:42;5.38;;;1.80;;
69207;SDS011;56321;47.662;8.878;2022-07-29T02:04:10;5.15;;;1.90;;
69207;SDS011;56321;47.662;8.878;2022-07-29T02:06:38;5.27;;;1.83;;
69207;SDS011;56321;47.662;8.878;2022-07-29T02:09:07;5.82;;;1.90;;
69207;SDS011;56321;47.662;8.878;2022-07-29T02:11:35;5.40;;;2.08;;
69207;SDS011;56321;47.662;8.878;2022-07-29T02:14:02;5.05;;;2.03;;
69207;SDS011;56321;47.662;8.878;2022-07-29T02:16:30;5.03;;;1.90;;
69207;SDS011;56321;47.662;8.878;2022-07-29T02:18:58;5.20;;;1.70;;
69207;SDS011;56321;47.662;8.878;2022-07-29T02:21:26;5.30;;;2.03;;
69207;SDS011;56321;47.662;8.878;2022-07-29T02:23:54;6.50;;;1.95;;
69207;SDS011;56321;47.662;8.878;2022-07-29T02:26:23;6.45;;;2.20;;
69207;SDS011;56321;47.662;8.878;2022-07-29T02:28:51;5.25;;;2.00;;
69207;SDS011;56321;47.662;8.878;2022-07-29T02:31:19;6.70;;;2.20;;
69207;SDS011;56321;47.662;8.878;2022-07-29T02:33:49;5.78;;;1.90;;
69207;SDS011;56321;47.662;8.878;2022-07-29T02:36:15;5.20;;;1.90;;
69207;SDS011;56321;47.662;8.878;2022-07-29T02:38:42;6.00;;;2.20;;
69207;SDS011;56321;47.662;8.878;2022-07-29T02:41:17;5.90;;;2.10;;
69207;SDS011;56321;47.662;8.878;2022-07-29T02:43:46;6.03;;;2.00;;
69207;SDS011;56321;47.662;8.878;2022-07-29T02:46:17;5.63;;;1.90;;
69207;SDS011;56321;47.662;8.878;2022-07-29T02:48:49;6.05;;;2.00;;
69207;SDS011;56321;47.662;8.878;2022-07-29T02:51:23;4.93;;;1.73;;
69207;SDS011;56321;47.662;8.878;2022-07-29T02:53:53;5.60;;;2.20;;
69207;SDS011;56321;47.662;8.878;2022-07-29T02:56:23;5.00;;;2.10;;
69207;SDS011;56321;47.662;8.878;2022-07-29T02:58:56;5.35;;;2.08;;
69207;SDS011;56321;47.662;8.878;2022-07-29T03:01:24;5.88;;;2.00;;
69207;SDS011;56321;47.662;8.878;2022-07-29T03:03:53;6.18;;;2.25;;
69207;SDS011;56321;47.662;8.878;2022-07-29T03:06:23;6.07;;;2.15;;
69207;SDS011;56321;47.662;8.878;2022-07-29T03:08:50;7.00;;;2.50;;
69207;SDS011;56321;47.662;8.878;2022-07-29T03:11:16;5.45;;;2.00;;
69207;SDS011;56321;47.662;8.878;2022-07-29T03:13:42;5.20;;;2.00;;
69207;SDS011;56321;47.662;8.878;2022-07-29T03:16:08;6.03;;;2.22;;
69207;SDS011;56321;47.662;8.878;2022-07-29T03:18:36;6.18;;;2.10;;
69207;SDS011;56321;47.662;8.878;2022-07-29T03:21:02;6.37;;;2.17;;
69207;SDS011;56321;47.662;8.878;2022-07-29T03:23:28;6.13;;;2.40;;
69207;SDS011;56321;47.662;8.878;2022-07-29T03:25:53;5.40;;;2.00;;
69207;SDS011;56321;47.662;8.878;2022-07-29T03:28:19;7.38;;;2.25;;
69207;SDS011;56321;47.662;8.878;2022-07-29T03:30:45;5.80;;;2.30;;
69207;SDS011;56321;47.662;8.878;2022-07-29T03:33:11;6.45;;;2.20;;
69207;SDS011;56321;47.662;8.878;2022-07-29T03:35:37;6.10;;;2.50;;
69207;SDS011;56321;47.662;8.878;2022-07-29T03:38:02;5.77;;;2.33;;
69207;SDS011;56321;47.662;8.878;2022-07-29T03:40:31;6.57;;;2.40;;
69207;SDS011;56321;47.662;8.878;2022-07-29T03:43:00;6.23;;;2.37;;
69207;SDS011;56321;47.662;8.878;2022-07-29T03:45:27;7.50;;;2.30;;
69207;SDS011;56321;47.662;8.878;2022-07-29T03:47:56;6.63;;;2.70;;
69207;SDS011;56321;47.662;8.878;2022-07-29T03:50:26;6.82;;;2.40;;
69207;SDS011;56321;47.662;8.878;2022-07-29T03:52:53;5.95;;;2.33;;
69207;SDS011;56321;47.662;8.878;2022-07-29T03:55:19;6.63;;;2.67;;
69207;SDS011;56321;47.662;8.878;2022-07-29T03:57:44;6.67;;;2.60;;
69207;SDS011;56321;47.662;8.878;2022-07-29T04:00:11;6.80;;;2.80;;
69207;SDS011;56321;47.662;8.878;2022-07-29T04:02:38;6.45;;;2.47;;
69207;SDS011;56321;47.662;8.878;2022-07-29T04:05:04;6.60;;;2.55;;
69207;SDS011;56321;47.662;8.878;2022-07-29T04:07:29;6.90;;;2.87;;
69207;SDS011;56321;47.662;8.878;2022-07-29T04:09:55;6.27;;;2.70;;
69207;SDS011;56321;47.662;8.878;2022-07-29T04:12:20;6.57;;;2.70;;
69207;SDS011;56321;47.662;8.878;2022-07-29T04:14:46;7.03;;;2.70;;
69207;SDS011;56321;47.662;8.878;2022-07-29T04:17:11;6.27;;;2.33;;
69207;SDS011;56321;47.662;8.878;2022-07-29T04:19:37;6.13;;;2.40;;
69207;SDS011;56321;47.662;8.878;2022-07-29T04:22:02;6.50;;;2.60;;
69207;SDS011;56321;47.662;8.878;2022-07-29T04:24:28;5.47;;;2.60;;
69207;SDS011;56321;47.662;8.878;2022-07-29T04:26:53;6.53;;;2.35;;
69207;SDS011;56321;47.662;8.878;2022-07-29T04:29:19;6.93;;;2.60;;
69207;SDS011;56321;47.662;8.878;2022-07-29T04:31:44;6.57;;;2.50;;
69207;SDS011;56321;47.662;8.878;2022-07-29T04:34:11;6.75;;;2.55;;
69207;SDS011;56321;47.662;8.878;2022-07-29T04:36:36;7.15;;;2.88;;
69207;SDS011;56321;47.662;8.878;2022-07-29T04:39:02;6.67;;;2.53;;
69207;SDS011;56321;47.662;8.878;2022-07-29T04:41:28;6.05;;;2.67;;
69207;SDS011;56321;47.662;8.878;2022-07-29T04:43:53;6.47;;;2.87;;
69207;SDS011;56321;47.662;8.878;2022-07-29T04:46:19;5.95;;;2.50;;
69207;SDS011;56321;47.662;8.878;2022-07-29T04:48:45;5.63;;;2.60;;
69207;SDS011;56321;47.662;8.878;2022-07-29T04:51:11;6.25;;;2.75;;
69207;SDS011;56321;47.662;8.878;2022-07-29T04:53:37;5.70;;;2.55;;
69207;SDS011;56321;47.662;8.878;2022-07-29T04:56:02;6.23;;;2.60;;
69207;SDS011;56321;47.662;8.878;2022-07-29T04:58:28;6.17;;;2.50;;
69207;SDS011;56321;47.662;8.878;2022-07-29T05:00:53;6.03;;;2.40;;
69207;SDS011;56321;47.662;8.878;2022-07-29T05:03:18;5.50;;;2.30;;
69207;SDS011;56321;47.662;8.878;2022-07-29T05:05:44;6.05;;;2.40;;
69207;SDS011;56321;47.662;8.878;2022-07-29T05:08:09;5.40;;;2.37;;
69207;SDS011;56321;47.662;8.878;2022-07-29T05:10:34;6.30;;;2.70;;
69207;SDS011;56321;47.662;8.878;2022-07-29T05:13:03;6.07;;;2.50;;
69207;SDS011;56321;47.662;8.878;2022-07-29T05:15:30;6.03;;;2.40;;
69207;SDS011;56321;47.662;8.878;2022-07-29T05:17:56;6.80;;;2.90;;
69207;SDS011;56321;47.662;8.878;2022-07-29T05:20:21;6.00;;;2.80;;
69207;SDS011;56321;47.662;8.878;2022-07-29T05:22:51;6.17;;;2.60;;
69207;SDS011;56321;47.662;8.878;2022-07-29T05:25:16;7.93;;;3.25;;
69207;SDS011;56321;47.662;8.878;2022-07-29T05:27:42;6.57;;;3.03;;
69207;SDS011;56321;47.662;8.878;2022-07-29T05:30:07;6.73;;;3.50;;
69207;SDS011;56321;47.662;8.878;2022-07-29T05:32:33;7.57;;;3.80;;
69207;SDS011;56321;47.662;8.878;2022-07-29T05:34:58;7.40;;;3.90;;
69207;SDS011;56321;47.662;8.878;2022-07-29T05:37:24;7.30;;;3.60;;
69207;SDS011;56321;47.662;8.878;2022-07-29T05:39:49;7.20;;;3.90;;
69207;SDS011;56321;47.662;8.878;2022-07-29T05:42:14;8.43;;;3.80;;
69207;SDS011;56321;47.662;8.878;2022-07-29T05:44:40;6.63;;;3.87;;
69207;SDS011;56321;47.662;8.878;2022-07-29T05:47:05;7.47;;;3.70;;
69207;SDS011;56321;47.662;8.878;2022-07-29T05:49:31;8.68;;;4.10;;
69207;SDS011;56321;47.662;8.878;2022-07-29T05:51:57;8.07;;;3.80;;
69207;SDS011;56321;47.662;8.878;2022-07-29T05:54:23;8.03;;;4.00;;
69207;SDS011;56321;47.662;8.878;2022-07-29T05:56:49;8.67;;;3.70;;
69207;SDS011;56321;47.662;8.878;2022-07-29T05:59:14;8.23;;;3.95;;
69207;SDS011;56321;47.662;8.878;2022-07-29T06:01:40;7.83;;;3.67;;
69207;SDS011;56321;47.662;8.878;2022-07-29T06:04:06;6.80;;;3.72;;
69207;SDS011;56321;47.662;8.878;2022-07-29T06:06:32;8.00;;;3.73;;
69207;SDS011;56321;47.662;8.878;2022-07-29T06:08:58;7.88;;;3.63;;
69207;SDS011;56321;47.662;8.878;2022-07-29T06:11:24;7.80;;;3.90;;
69207;SDS011;56321;47.662;8.878;2022-07-29T06:13:50;8.53;;;4.47;;
69207;SDS011;56321;47.662;8.878;2022-07-29T06:16:15;8.50;;;4.10;;
69207;SDS011;56321;47.662;8.878;2022-07-29T06:18:41;8.03;;;4.00;;
69207;SDS011;56321;47.662;8.878;2022-07-29T06:21:09;8.77;;;4.28;;
69207;SDS011;56321;47.662;8.878;2022-07-29T06:23:37;8.53;;;4.43;;
69207;SDS011;56321;47.662;8.878;2022-07-29T06:26:03;8.43;;;4.00;;
69207;SDS011;56321;47.662;8.878;2022-07-29T06:28:29;8.45;;;3.90;;
69207;SDS011;56321;47.662;8.878;2022-07-29T06:30:55;7.57;;;4.00;;
69207;SDS011;56321;47.662;8.878;2022-07-29T06:33:20;7.68;;;3.90;;
69207;SDS011;56321;47.662;8.878;2022-07-29T06:35:45;7.40;;;3.70;;
69207;SDS011;56321;47.662;8.878;2022-07-29T06:38:14;8.50;;;3.78;;
69207;SDS011;56321;47.662;8.878;2022-07-29T06:40:42;8.27;;;4.30;;
69207;SDS011;56321;47.662;8.878;2022-07-29T06:43:34;8.45;;;3.88;;
69207;SDS011;56321;47.662;8.878;2022-07-29T06:46:06;6.90;;;3.53;;
69207;SDS011;56321;47.662;8.878;2022-07-29T06:48:34;7.60;;;3.45;;
69207;SDS011;56321;47.662;8.878;2022-07-29T06:51:01;8.68;;;3.95;;
69207;SDS011;56321;47.662;8.878;2022-07-29T06:53:28;7.47;;;3.60;;
69207;SDS011;56321;47.662;8.878;2022-07-29T06:55:54;7.32;;;3.55;;
69207;SDS011;56321;47.662;8.878;2022-07-29T06:58:19;8.30;;;3.50;;
69207;SDS011;56321;47.662;8.878;2022-07-29T07:00:46;7.28;;;3.20;;
69207;SDS011;56321;47.662;8.878;2022-07-29T07:03:13;6.93;;;3.10;;
69207;SDS011;56321;47.662;8.878;2022-07-29T07:05:38;7.10;;;3.30;;
69207;SDS011;56321;47.662;8.878;2022-07-29T07:08:04;8.73;;;3.57;;
69207;SDS011;56321;47.662;8.878;2022-07-29T07:10:30;7.60;;;3.33;;
69207;SDS011;56321;47.662;8.878;2022-07-29T07:12:56;7.30;;;3.22;;
69207;SDS011;56321;47.662;8.878;2022-07-29T07:15:21;6.63;;;3.00;;
69207;SDS011;56321;47.662;8.878;2022-07-29T07:17:50;6.00;;;2.87;;
69207;SDS011;56321;47.662;8.878;2022-07-29T07:20:16;8.00;;;2.85;;
69207;SDS011;56321;47.662;8.878;2022-07-29T07:22:42;6.97;;;3.25;;
69207;SDS011;56321;47.662;8.878;2022-07-29T07:25:07;6.23;;;2.80;;
69207;SDS011;56321;47.662;8.878;2022-07-29T07:27:34;7.97;;;2.78;;
69207;SDS011;56321;47.662;8.878;2022-07-29T07:29:59;8.90;;;3.00;;
69207;SDS011;56321;47.662;8.878;2022-07-29T07:32:25;7.43;;;3.30;;
69207;SDS011;56321;47.662;8.878;2022-07-29T07:34:50;6.23;;;2.70;;
69207;SDS011;56321;47.662;8.878;2022-07-29T07:37:15;6.17;;;2.73;;
69207;SDS011;56321;47.662;8.878;2022-07-29T07:39:41;5.67;;;2.47;;
69207;SDS011;56321;47.662;8.878;2022-07-29T07:42:06;6.87;;;2.63;;
69207;SDS011;56321;47.662;8.878;2022-07-29T07:44:32;6.57;;;2.70;;
69207;SDS011;56321;47.662;8.878;2022-07-29T07:46:57;6.32;;;2.90;;
69207;SDS011;56321;47.662;8.878;2022-07-29T07:49:23;6.53;;;2.50;;
69207;SDS011;56321;47.662;8.878;2022-07-29T07:51:48;5.65;;;2.50;;
69207;SDS011;56321;47.662;8.878;2022-07-29T07:54:14;5.70;;;2.30;;
69207;SDS011;56321;47.662;8.878;2022-07-29T07:56:39;6.67;;;2.40;;
69207;SDS011;56321;47.662;8.878;2022-07-29T07:59:04;6.33;;;2.50;;
69207;SDS011;56321;47.662;8.878;2022-07-29T08:01:30;5.50;;;2.40;;
69207;SDS011;56321;47.662;8.878;2022-07-29T08:03:55;7.00;;;2.20;;
69207;SDS011;56321;47.662;8.878;2022-07-29T08:06:20;5.63;;;2.10;;
69207;SDS011;56321;47.662;8.878;2022-07-29T08:08:46;5.77;;;2.27;;
69207;SDS011;56321;47.662;8.878;2022-07-29T08:11:11;5.10;;;2.10;;
69207;SDS011;56321;47.662;8.878;2022-07-29T08:13:37;5.30;;;2.00;;
69207;SDS011;56321;47.662;8.878;2022-07-29T08:16:03;5.68;;;2.08;;
69207;SDS011;56321;47.662;8.878;2022-07-29T08:18:37;6.18;;;2.00;;
69207;SDS011;56321;47.662;8.878;2022-07-29T08:21:04;5.70;;;1.90;;
69207;SDS011;56321;47.662;8.878;2022-07-29T08:23:29;5.83;;;2.10;;
69207;SDS011;56321;47.662;8.878;2022-07-29T08:26:10;6.35;;;1.98;;
69207;SDS011;56321;47.662;8.878;2022-07-29T08:28:40;5.88;;;2.42;;
69207;SDS011;56321;47.662;8.878;2022-07-29T08:31:09;6.50;;;2.33;;
69207;SDS011;56321;47.662;8.878;2022-07-29T08:33:35;5.37;;;2.20;;
69207;SDS011;56321;47.662;8.878;2022-07-29T08:36:00;5.40;;;1.90;;
69207;SDS011;56321;47.662;8.878;2022-07-29T08:38:25;5.35;;;1.90;;
69207;SDS011;56321;47.662;8.878;2022-07-29T08:40:52;5.77;;;2.27;;
69207;SDS011;56321;47.662;8.878;2022-07-29T08:43:18;6.35;;;2.10;;
69207;SDS011;56321;47.662;8.878;2022-07-29T08:45:44;5.40;;;2.40;;
69207;SDS011;56321;47.662;8.878;2022-07-29T08:48:12;6.35;;;2.40;;
69207;SDS011;56321;47.662;8.878;2022-07-29T08:50:38;5.93;;;2.10;;
69207;SDS011;56321;47.662;8.878;2022-07-29T08:53:06;5.20;;;2.10;;
69207;SDS011;56321;47.662;8.878;2022-07-29T08:55:34;6.10;;;2.20;;
69207;SDS011;56321;47.662;8.878;2022-07-29T08:58:00;6.80;;;2.50;;
69207;SDS011;56321;47.662;8.878;2022-07-29T09:00:26;5.97;;;2.20;;
69207;SDS011;56321;47.662;8.878;2022-07-29T09:02:56;5.78;;;1.98;;
69207;SDS011;56321;47.662;8.878;2022-07-29T09:05:23;5.60;;;2.10;;
69207;SDS011;56321;47.662;8.878;2022-07-29T09:07:50;6.10;;;2.25;;
69207;SDS011;56321;47.662;8.878;2022-07-29T09:10:16;6.03;;;2.45;;
69207;SDS011;56321;47.662;8.878;2022-07-29T09:12:42;5.93;;;2.30;;
69207;SDS011;56321;47.662;8.878;2022-07-29T09:15:07;6.28;;;2.42;;
69207;SDS011;56321;47.662;8.878;2022-07-29T09:17:42;6.70;;;2.40;;
69207;SDS011;56321;47.662;8.878;2022-07-29T09:20:17;6.47;;;2.63;;
69207;SDS011;56321;47.662;8.878;2022-07-29T09:22:44;6.95;;;2.70;;
69207;SDS011;56321;47.662;8.878;2022-07-29T09:25:14;5.70;;;2.57;;
69207;SDS011;56321;47.662;8.878;2022-07-29T09:28:04;6.38;;;2.30;;
69207;SDS011;56321;47.662;8.878;2022-07-29T09:30:53;6.35;;;2.28;;
69207;SDS011;56321;47.662;8.878;2022-07-29T09:33:21;5.90;;;2.17;;
69207;SDS011;56321;47.662;8.878;2022-07-29T09:36:04;6.68;;;2.60;;
69207;SDS011;56321;47.662;8.878;2022-07-29T09:38:31;5.80;;;2.67;;
69207;SDS011;56321;47.662;8.878;2022-07-29T09:40:57;6.55;;;2.60;;
69207;SDS011;56321;47.662;8.878;2022-07-29T09:43:24;6.65;;;2.70;;
69207;SDS011;56321;47.662;8.878;2022-07-29T09:45:49;5.60;;;2.47;;
69207;SDS011;56321;47.662;8.878;2022-07-29T09:48:16;7.93;;;2.37;;
69207;SDS011;56321;47.662;8.878;2022-07-29T09:50:46;6.95;;;2.60;;
69207;SDS011;56321;47.662;8.878;2022-07-29T09:53:36;6.70;;;2.65;;
69207;SDS011;56321;47.662;8.878;2022-07-29T09:56:03;6.22;;;2.33;;
69207;SDS011;56321;47.662;8.878;2022-07-29T09:58:29;6.45;;;2.17;;
69207;SDS011;56321;47.662;8.878;2022-07-29T10:00:55;5.90;;;2.40;;
69207;SDS011;56321;47.662;8.878;2022-07-29T10:03:21;5.82;;;2.70;;
69207;SDS011;56321;47.662;8.878;2022-07-29T10:06:03;5.43;;;2.40;;
69207;SDS011;56321;47.662;8.878;2022-07-29T10:08:38;7.30;;;3.10;;
69207;SDS011;56321;47.662;8.878;2022-07-29T10:11:13;7.20;;;2.70;;
69207;SDS011;56321;47.662;8.878;2022-07-29T10:13:43;5.87;;;2.60;;
69207;SDS011;56321;47.662;8.878;2022-07-29T10:16:11;6.07;;;2.40;;
69207;SDS011;56321;47.662;8.878;2022-07-29T10:18:37;5.80;;;2.63;;
69207;SDS011;56321;47.662;8.878;2022-07-29T10:21:04;6.35;;;2.80;;
69207;SDS011;56321;47.662;8.878;2022-07-29T10:23:30;5.93;;;2.70;;
69207;SDS011;56321;47.662;8.878;2022-07-29T10:25:56;5.53;;;2.50;;
69207;SDS011;56321;47.662;8.878;2022-07-29T10:28:22;5.93;;;2.88;;
69207;SDS011;56321;47.662;8.878;2022-07-29T10:30:48;6.20;;;2.87;;
69207;SDS011;56321;47.662;8.878;2022-07-29T10:38:37;6.85;;;2.70;;
69207;SDS011;56321;47.662;8.878;2022-07-29T10:44:20;5.30;;;2.40;;
69207;SDS011;56321;47.662;8.878;2022-07-29T10:46:47;6.10;;;2.90;;
69207;SDS011;56321;47.662;8.878;2022-07-29T10:49:14;6.00;;;2.90;;
69207;SDS011;56321;47.662;8.878;2022-07-29T10:57:14;7.10;;;2.70;;
69207;SDS011;56321;47.662;8.878;2022-07-29T10:59:40;6.00;;;3.00;;
69207;SDS011;56321;47.662;8.878;2022-07-29T11:07:24;5.95;;;2.88;;
69207;SDS011;56321;47.662;8.878;2022-07-29T11:15:06;6.03;;;2.78;;
69207;SDS011;56321;47.662;8.878;2022-07-29T11:31:16;6.17;;;2.70;;
69207;SDS011;56321;47.662;8.878;2022-07-29T11:33:44;6.65;;;2.53;;
69207;SDS011;56321;47.662;8.878;2022-07-29T11:36:14;5.30;;;2.35;;
69207;SDS011;56321;47.662;8.878;2022-07-29T11:38:40;6.28;;;2.83;;
69207;SDS011;56321;47.662;8.878;2022-07-29T11:49:21;7.03;;;2.92;;
69207;SDS011;56321;47.662;8.878;2022-07-29T11:51:55;5.68;;;2.65;;
69207;SDS011;56321;47.662;8.878;2022-07-29T11:54:23;5.57;;;2.60;;
69207;SDS011;56321;47.662;8.878;2022-07-29T11:56:51;5.50;;;2.60;;
69207;SDS011;56321;47.662;8.878;2022-07-29T11:59:17;5.50;;;2.80;;
69207;SDS011;56321;47.662;8.878;2022-07-29T12:01:53;5.70;;;2.58;;
69207;SDS011;56321;47.662;8.878;2022-07-29T12:04:19;5.47;;;2.67;;
69207;SDS011;56321;47.662;8.878;2022-07-29T12:06:48;6.10;;;2.87;;
69207;SDS011;56321;47.662;8.878;2022-07-29T12:09:15;4.97;;;2.50;;
69207;SDS011;56321;47.662;8.878;2022-07-29T12:11:40;5.43;;;2.63;;
69207;SDS011;56321;47.662;8.878;2022-07-29T12:14:06;6.18;;;2.63;;
69207;SDS011;56321;47.662;8.878;2022-07-29T12:16:35;5.60;;;2.87;;
69207;SDS011;56321;47.662;8.878;2022-07-29T12:19:02;5.70;;;2.75;;
69207;SDS011;56321;47.662;8.878;2022-07-29T12:21:29;5.68;;;2.85;;
69207;SDS011;56321;47.662;8.878;2022-07-29T12:24:08;5.55;;;2.83;;
69207;SDS011;56321;47.662;8.878;2022-07-29T12:26:33;7.90;;;2.73;;
69207;SDS011;56321;47.662;8.878;2022-07-29T12:28:58;6.40;;;3.10;;
69207;SDS011;56321;47.662;8.878;2022-07-29T12:31:24;5.63;;;2.50;;
69207;SDS011;56321;47.662;8.878;2022-07-29T12:33:52;5.47;;;2.43;;
69207;SDS011;56321;47.662;8.878;2022-07-29T12:36:18;5.80;;;2.75;;
69207;SDS011;56321;47.662;8.878;2022-07-29T12:38:44;6.85;;;2.50;;
69207;SDS011;56321;47.662;8.878;2022-07-29T12:41:09;5.20;;;2.43;;
69207;SDS011;56321;47.662;8.878;2022-07-29T12:43:35;5.47;;;2.40;;
69207;SDS011;56321;47.662;8.878;2022-07-29T12:46:11;5.63;;;2.72;;
69207;SDS011;56321;47.662;8.878;2022-07-29T12:48:39;5.30;;;2.47;;
69207;SDS011;56321;47.662;8.878;2022-07-29T12:51:07;6.32;;;2.67;;
69207;SDS011;56321;47.662;8.878;2022-07-29T12:53:33;6.10;;;2.88;;
69207;SDS011;56321;47.662;8.878;2022-07-29T12:55:59;6.43;;;2.60;;
69207;SDS011;56321;47.662;8.878;2022-07-29T12:58:28;6.30;;;2.57;;
69207;SDS011;56321;47.662;8.878;2022-07-29T13:09:00;6.20;;;3.03;;
69207;SDS011;56321;47.662;8.878;2022-07-29T13:14:29;7.40;;;3.10;;
69207;SDS011;56321;47.662;8.878;2022-07-29T13:16:59;6.65;;;2.88;;
69207;SDS011;56321;47.662;8.878;2022-07-29T13:19:36;6.65;;;3.00;;
69207;SDS011;56321;47.662;8.878;2022-07-29T13:22:09;5.72;;;3.28;;
69207;SDS011;56321;47.662;8.878;2022-07-29T13:24:47;6.60;;;3.10;;
69207;SDS011;56321;47.662;8.878;2022-07-29T13:27:17;5.97;;;3.20;;
69207;SDS011;56321;47.662;8.878;2022-07-29T13:29:43;6.18;;;3.47;;
69207;SDS011;56321;47.662;8.878;2022-07-29T13:32:09;6.43;;;3.73;;
69207;SDS011;56321;47.662;8.878;2022-07-29T13:34:34;6.67;;;3.20;;
69207;SDS011;56321;47.662;8.878;2022-07-29T13:37:00;5.90;;;3.00;;
69207;SDS011;56321;47.662;8.878;2022-07-29T13:39:25;6.57;;;3.50;;
69207;SDS011;56321;47.662;8.878;2022-07-29T13:41:50;7.13;;;3.10;;
69207;SDS011;56321;47.662;8.878;2022-07-29T13:44:16;6.03;;;2.80;;
69207;SDS011;56321;47.662;8.878;2022-07-29T13:46:41;5.32;;;2.03;;
69207;SDS011;56321;47.662;8.878;2022-07-29T13:49:07;5.53;;;2.10;;
69207;SDS011;56321;47.662;8.878;2022-07-29T13:51:32;6.17;;;2.23;;
69207;SDS011;56321;47.662;8.878;2022-07-29T13:53:57;5.73;;;2.10;;
69207;SDS011;56321;47.662;8.878;2022-07-29T13:56:23;6.07;;;2.10;;
69207;SDS011;56321;47.662;8.878;2022-07-29T13:58:48;5.10;;;2.23;;
69207;SDS011;56321;47.662;8.878;2022-07-29T14:01:14;5.20;;;2.20;;
69207;SDS011;56321;47.662;8.878;2022-07-29T14:03:39;5.30;;;2.10;;
69207;SDS011;56321;47.662;8.878;2022-07-29T14:06:07;5.53;;;2.10;;
69207;SDS011;56321;47.662;8.878;2022-07-29T14:08:33;5.75;;;2.40;;
69207;SDS011;56321;47.662;8.878;2022-07-29T14:10:58;5.87;;;2.30;;
69207;SDS011;56321;47.662;8.878;2022-07-29T14:13:24;5.00;;;2.30;;
69207;SDS011;56321;47.662;8.878;2022-07-29T14:15:49;6.40;;;2.20;;
69207;SDS011;56321;47.662;8.878;2022-07-29T14:18:14;5.70;;;2.30;;
69207;SDS011;56321;47.662;8.878;2022-07-29T14:20:40;5.82;;;2.03;;
69207;SDS011;56321;47.662;8.878;2022-07-29T14:23:05;8.17;;;3.13;;
69207;SDS011;56321;47.662;8.878;2022-07-29T14:25:30;7.03;;;3.13;;
69207;SDS011;56321;47.662;8.878;2022-07-29T14:27:56;6.13;;;3.03;;
69207;SDS011;56321;47.662;8.878;2022-07-29T14:30:21;7.13;;;3.20;;
69207;SDS011;56321;47.662;8.878;2022-07-29T14:32:46;6.20;;;3.30;;
69207;SDS011;56321;47.662;8.878;2022-07-29T14:35:12;6.80;;;3.30;;
69207;SDS011;56321;47.662;8.878;2022-07-29T14:37:37;6.73;;;3.17;;
69207;SDS011;56321;47.662;8.878;2022-07-29T14:40:03;6.80;;;3.10;;
69207;SDS011;56321;47.662;8.878;2022-07-29T14:42:29;6.57;;;3.20;;
69207;SDS011;56321;47.662;8.878;2022-07-29T14:44:56;6.05;;;3.08;;
69207;SDS011;56321;47.662;8.878;2022-07-29T14:47:22;5.87;;;2.93;;
69207;SDS011;56321;47.662;8.878;2022-07-29T14:49:48;6.20;;;3.05;;
69207;SDS011;56321;47.662;8.878;2022-07-29T14:52:14;6.00;;;2.97;;
69207;SDS011;56321;47.662;8.878;2022-07-29T14:54:39;7.03;;;3.10;;
69207;SDS011;56321;47.662;8.878;2022-07-29T14:57:05;5.80;;;3.00;;
69207;SDS011;56321;47.662;8.878;2022-07-29T14:59:30;6.67;;;2.90;;
69207;SDS011;56321;47.662;8.878;2022-07-29T15:01:55;7.40;;;3.47;;
69207;SDS011;56321;47.662;8.878;2022-07-29T15:04:21;6.40;;;3.43;;
69207;SDS011;56321;47.662;8.878;2022-07-29T15:06:46;7.00;;;3.10;;
69207;SDS011;56321;47.662;8.878;2022-07-29T15:09:12;6.22;;;3.40;;
69207;SDS011;56321;47.662;8.878;2022-07-29T15:11:37;6.87;;;3.20;;
69207;SDS011;56321;47.662;8.878;2022-07-29T15:14:03;7.13;;;3.40;;
69207;SDS011;56321;47.662;8.878;2022-07-29T15:16:28;7.60;;;3.30;;
69207;SDS011;56321;47.662;8.878;2022-07-29T15:18:54;6.30;;;3.17;;
69207;SDS011;56321;47.662;8.878;2022-07-29T15:21:21;6.95;;;3.40;;
69207;SDS011;56321;47.662;8.878;2022-07-29T15:23:47;7.17;;;3.20;;
69207;SDS011;56321;47.662;8.878;2022-07-29T15:26:12;7.03;;;3.23;;
69207;SDS011;56321;47.662;8.878;2022-07-29T15:28:37;7.03;;;3.10;;
69207;SDS011;56321;47.662;8.878;2022-07-29T15:31:03;6.53;;;3.20;;
69207;SDS011;56321;47.662;8.878;2022-07-29T15:33:28;6.30;;;3.30;;
69207;SDS011;56321;47.662;8.878;2022-07-29T15:35:55;6.80;;;3.07;;
69207;SDS011;56321;47.662;8.878;2022-07-29T15:38:21;6.10;;;2.50;;
69207;SDS011;56321;47.662;8.878;2022-07-29T15:40:46;5.87;;;2.80;;
69207;SDS011;56321;47.662;8.878;2022-07-29T15:43:11;5.67;;;2.70;;
69207;SDS011;56321;47.662;8.878;2022-07-29T15:45:37;6.03;;;2.65;;
69207;SDS011;56321;47.662;8.878;2022-07-29T15:48:26;6.03;;;2.80;;
69207;SDS011;56321;47.662;8.878;2022-07-29T15:50:52;6.60;;;2.50;;
69207;SDS011;56321;47.662;8.878;2022-07-29T15:53:17;7.07;;;2.50;;
69207;SDS011;56321;47.662;8.878;2022-07-29T15:55:42;5.87;;;2.50;;
69207;SDS011;56321;47.662;8.878;2022-07-29T15:58:08;5.87;;;2.77;;
69207;SDS011;56321;47.662;8.878;2022-07-29T16:00:33;5.65;;;2.60;;